Wetterdaten: Woche 13.03.17 - 19.03.17 (KW11)
Datum Zeit Temperatur Luftfeuchte Luftdruck Niederschlag Windrichtung Sonnenschein Solar Wind
13.03.2017 00:00 2,0 C 81 % 1016,6 hPa 0,0 l/m N 0,00 h 0 W/m 1,7 km/h (1 Bft)
13.03.2017 01:00 1,3 C 82 % 1017,3 hPa 0,0 l/m NO 0,00 h 0 W/m 2,3 km/h (1 Bft)
13.03.2017 02:00 0,4 C 85 % 1017,8 hPa 0,0 l/m NO 0,00 h 0 W/m 3,1 km/h (1 Bft)
13.03.2017 03:00 -0,3 C 87 % 1018,1 hPa 0,0 l/m NO 0,00 h 0 W/m 3,3 km/h (1 Bft)
13.03.2017 04:00 -0,8 C 88 % 1018,6 hPa 0,0 l/m N 0,00 h 0 W/m 0,9 km/h (0 Bft)
13.03.2017 05:00 -1,3 C 89 % 1019,2 hPa 0,0 l/m N-NO 0,00 h 0 W/m 3,6 km/h (1 Bft)
13.03.2017 06:00 -1,6 C 90 % 1019,8 hPa 0,0 l/m N-NO 0,17 h 11 W/m 2,7 km/h (1 Bft)
13.03.2017 07:00 -1,8 C 91 % 1020,7 hPa 0,0 l/m N-NO 0,33 h 74 W/m 0,4 km/h (0 Bft)
13.03.2017 08:00 -0,2 C 90 % 1021,5 hPa 0,0 l/m N-NO 1,00 h 267 W/m 5,3 km/h (1 Bft)
13.03.2017 09:00 2,1 C 84 % 1022,1 hPa 0,0 l/m N-NO 1,00 h 428 W/m 5,1 km/h (1 Bft)
13.03.2017 10:00 4,3 C 76 % 1022,5 hPa 0,0 l/m O-NO 0,92 h 508 W/m 4,9 km/h (1 Bft)
13.03.2017 11:00 6,8 C 69 % 1022,9 hPa 0,0 l/m O 1,00 h 627 W/m 4,0 km/h (1 Bft)
13.03.2017 12:00 9,2 C 60 % 1023,1 hPa 0,0 l/m O 1,00 h 623 W/m 5,3 km/h (1 Bft)
13.03.2017 13:00 10,6 C 50 % 1022,9 hPa 0,0 l/m O-NO 1,00 h 609 W/m 4,8 km/h (1 Bft)
13.03.2017 14:00 11,8 C 44 % 1023,2 hPa 0,0 l/m N-NW 1,00 h 514 W/m 9,5 km/h (2 Bft)
13.03.2017 15:00 11,8 C 41 % 1023,2 hPa 0,0 l/m N 1,00 h 326 W/m 3,9 km/h (1 Bft)
13.03.2017 16:00 11,6 C 40 % 1023,5 hPa 0,0 l/m N 0,58 h 172 W/m 3,5 km/h (1 Bft)
13.03.2017 17:00 10,8 C 43 % 1024,3 hPa 0,0 l/m N 0,00 h 49 W/m 0,0 km/h (0 Bft)
13.03.2017 18:00 9,2 C 57 % 1025,4 hPa 0,0 l/m N 0,17 h 20 W/m 0,0 km/h (0 Bft)
13.03.2017 19:00 7,8 C 65 % 1026,2 hPa 0,0 l/m N 0,00 h 0 W/m 0,4 km/h (0 Bft)
13.03.2017 20:00 6,7 C 70 % 1026,9 hPa 0,0 l/m N 0,00 h 0 W/m 0,0 km/h (0 Bft)
13.03.2017 21:00 6,4 C 69 % 1027,4 hPa 0,0 l/m N 0,00 h 0 W/m 1,6 km/h (1 Bft)
13.03.2017 22:00 5,8 C 72 % 1028,1 hPa 0,0 l/m N-NO 0,00 h 0 W/m 1,5 km/h (1 Bft)
13.03.2017 23:00 4,5 C 75 % 1028,6 hPa 0,0 l/m N 0,00 h 0 W/m 0,7 km/h (0 Bft)
14.03.2017 00:00 2,9 C 80 % 1029,2 hPa 0,0 l/m N 0,00 h 0 W/m 0,1 km/h (0 Bft)
14.03.2017 01:00 2,2 C 82 % 1029,4 hPa 0,0 l/m N 0,00 h 0 W/m 0,0 km/h (0 Bft)
14.03.2017 02:00 1,8 C 84 % 1029,7 hPa 0,0 l/m N 0,00 h 0 W/m 0,0 km/h (0 Bft)
14.03.2017 03:00 1,0 C 86 % 1029,9 hPa 0,0 l/m N 0,00 h 0 W/m 0,0 km/h (0 Bft)
14.03.2017 04:00 0,0 C 87 % 1030,1 hPa 0,0 l/m N 0,00 h 0 W/m 0,0 km/h (0 Bft)
14.03.2017 05:00 -0,6 C 89 % 1030,5 hPa 0,0 l/m N 0,00 h 0 W/m 0,0 km/h (0 Bft)
14.03.2017 06:00 -1,0 C 90 % 1031,1 hPa 0,0 l/m N 0,17 h 14 W/m 0,0 km/h (0 Bft)
14.03.2017 07:00 -1,0 C 92 % 1031,4 hPa 0,0 l/m N 0,58 h 83 W/m 0,0 km/h (0 Bft)
14.03.2017 08:00 1,6 C 90 % 1031,6 hPa 0,0 l/m N 0,92 h 276 W/m 0,0 km/h (0 Bft)
14.03.2017 09:00 5,9 C 77 % 1031,8 hPa 0,0 l/m N-NO 1,00 h 439 W/m 1,3 km/h (1 Bft)
14.03.2017 10:00 9,3 C 64 % 1031,8 hPa 0,0 l/m N-NO 1,00 h 449 W/m 3,1 km/h (1 Bft)
14.03.2017 11:00 11,0 C 57 % 1031,5 hPa 0,0 l/m N-NO 1,00 h 586 W/m 4,8 km/h (1 Bft)
14.03.2017 12:00 12,6 C 51 % 1030,7 hPa 0,0 l/m NW 0,92 h 607 W/m 7,9 km/h (2 Bft)
14.03.2017 13:00 13,8 C 47 % 1030,3 hPa 0,0 l/m N 1,00 h 583 W/m 10,6 km/h (2 Bft)
14.03.2017 14:00 14,4 C 44 % 1029,9 hPa 0,0 l/m N 1,00 h 531 W/m 10,7 km/h (2 Bft)
14.03.2017 15:00 14,9 C 44 % 1029,6 hPa 0,0 l/m N-NO 1,00 h 413 W/m 7,0 km/h (2 Bft)
14.03.2017 16:00 15,0 C 45 % 1029,2 hPa 0,0 l/m W 1,00 h 223 W/m 5,4 km/h (1 Bft)
14.03.2017 17:00 13,3 C 53 % 1029,0 hPa 0,0 l/m SW 0,08 h 60 W/m 10,9 km/h (2 Bft)
14.03.2017 18:00 11,3 C 60 % 1029,6 hPa 0,0 l/m SW 0,17 h 14 W/m 4,3 km/h (1 Bft)
14.03.2017 19:00 9,8 C 65 % 1029,9 hPa 0,0 l/m N 0,00 h 0 W/m 1,3 km/h (1 Bft)
14.03.2017 20:00 8,1 C 73 % 1030,1 hPa 0,0 l/m N 0,00 h 0 W/m 0,0 km/h (0 Bft)
14.03.2017 21:00 7,3 C 76 % 1030,4 hPa 0,0 l/m W-SW 0,00 h 0 W/m 2,7 km/h (1 Bft)
14.03.2017 22:00 6,2 C 80 % 1030,9 hPa 0,0 l/m N 0,00 h 0 W/m 0,0 km/h (0 Bft)
14.03.2017 23:00 4,9 C 85 % 1031,1 hPa 0,0 l/m N 0,00 h 0 W/m 0,0 km/h (0 Bft)
15.03.2017 00:00 3,7 C 89 % 1030,9 hPa 0,0 l/m N 0,00 h 0 W/m 0,0 km/h (0 Bft)
15.03.2017 01:00 2,9 C 91 % 1030,9 hPa 0,0 l/m N 0,00 h 0 W/m 0,0 km/h (0 Bft)
15.03.2017 02:00 2,2 C 92 % 1030,5 hPa 0,0 l/m N 0,00 h 0 W/m 0,0 km/h (0 Bft)
15.03.2017 03:00 1,7 C 93 % 1030,4 hPa 0,0 l/m N 0,00 h 0 W/m 0,0 km/h (0 Bft)
15.03.2017 04:00 1,1 C 93 % 1030,2 hPa 0,0 l/m N 0,00 h 0 W/m 0,0 km/h (0 Bft)
15.03.2017 05:00 0,6 C 93 % 1030,3 hPa 0,0 l/m N 0,00 h 0 W/m 0,0 km/h (0 Bft)
15.03.2017 06:00 0,1 C 93 % 1030,3 hPa 0,0 l/m N 0,17 h 13 W/m 0,0 km/h (0 Bft)
15.03.2017 07:00 0,3 C 94 % 1030,2 hPa 0,0 l/m N 0,42 h 86 W/m 0,0 km/h (0 Bft)
15.03.2017 08:00 2,9 C 93 % 1030,6 hPa 0,0 l/m N 0,58 h 176 W/m 0,0 km/h (0 Bft)
15.03.2017 09:00 5,8 C 84 % 1030,8 hPa 0,0 l/m N 0,92 h 334 W/m 0,5 km/h (0 Bft)
15.03.2017 10:00 9,3 C 70 % 1030,9 hPa 0,0 l/m W-SW 1,00 h 472 W/m 5,9 km/h (2 Bft)
15.03.2017 11:00 11,6 C 64 % 1031,0 hPa 0,0 l/m N 0,92 h 522 W/m 9,3 km/h (2 Bft)
15.03.2017 12:00 12,9 C 58 % 1030,3 hPa 0,0 l/m O-SO 0,92 h 512 W/m 8,6 km/h (2 Bft)
15.03.2017 13:00 13,9 C 54 % 1029,6 hPa 0,0 l/m O-NO 0,92 h 542 W/m 6,0 km/h (2 Bft)
15.03.2017 14:00 14,5 C 50 % 1028,8 hPa 0,0 l/m O 0,75 h 369 W/m 8,2 km/h (2 Bft)
15.03.2017 15:00 14,1 C 51 % 1028,3 hPa 0,0 l/m O 0,08 h 177 W/m 5,3 km/h (1 Bft)
15.03.2017 16:00 13,8 C 53 % 1028,1 hPa 0,0 l/m N 0,25 h 139 W/m 2,7 km/h (1 Bft)
15.03.2017 17:00 13,3 C 56 % 1027,8 hPa 0,0 l/m O 0,00 h 65 W/m 1,7 km/h (1 Bft)
15.03.2017 18:00 11,8 C 64 % 1027,9 hPa 0,0 l/m O 0,17 h 13 W/m 3,3 km/h (1 Bft)
15.03.2017 19:00 10,3 C 72 % 1028,0 hPa 0,0 l/m O-NO 0,00 h 0 W/m 8,2 km/h (2 Bft)
15.03.2017 20:00 9,4 C 76 % 1028,4 hPa 0,0 l/m O-NO 0,00 h 0 W/m 4,0 km/h (1 Bft)
15.03.2017 21:00 7,3 C 83 % 1028,5 hPa 0,0 l/m N 0,00 h 0 W/m 0,0 km/h (0 Bft)
15.03.2017 22:00 6,3 C 87 % 1028,4 hPa 0,0 l/m N 0,00 h 0 W/m 0,0 km/h (0 Bft)
15.03.2017 23:00 5,4 C 90 % 1028,2 hPa 0,0 l/m N 0,00 h 0 W/m 0,3 km/h (0 Bft)
16.03.2017 00:00 4,6 C 92 % 1027,7 hPa 0,0 l/m N 0,00 h 0 W/m 0,0 km/h (0 Bft)
16.03.2017 01:00 3,9 C 94 % 1027,2 hPa 0,0 l/m N 0,00 h 0 W/m 0,0 km/h (0 Bft)
16.03.2017 02:00 3,5 C 95 % 1026,7 hPa 0,0 l/m O-NO 0,00 h 0 W/m 4,1 km/h (1 Bft)
16.03.2017 03:00 2,9 C 95 % 1026,2 hPa 0,0 l/m N 0,00 h 0 W/m 0,0 km/h (0 Bft)
16.03.2017 04:00 2,4 C 95 % 1025,8 hPa 0,0 l/m N 0,00 h 0 W/m 0,4 km/h (0 Bft)
16.03.2017 05:00 2,2 C 95 % 1025,7 hPa 0,0 l/m N 0,00 h 0 W/m 0,3 km/h (0 Bft)
16.03.2017 06:00 2,2 C 96 % 1025,5 hPa 0,0 l/m O-NO 0,00 h 10 W/m 3,3 km/h (1 Bft)
16.03.2017 07:00 2,8 C 96 % 1025,3 hPa 0,0 l/m O-NO 0,25 h 73 W/m 3,5 km/h (1 Bft)
16.03.2017 08:00 4,5 C 97 % 1025,2 hPa 0,0 l/m O-NO 0,83 h 241 W/m 3,9 km/h (1 Bft)
16.03.2017 09:00 6,9 C 92 % 1025,2 hPa 0,0 l/m O-NO 1,00 h 422 W/m 9,0 km/h (2 Bft)
16.03.2017 10:00 9,1 C 82 % 1024,6 hPa 0,0 l/m O-NO 1,00 h 544 W/m 7,9 km/h (2 Bft)
16.03.2017 11:00 11,7 C 71 % 1024,0 hPa 0,0 l/m NO 1,00 h 625 W/m 9,0 km/h (2 Bft)
16.03.2017 12:00 13,8 C 64 % 1023,1 hPa 0,0 l/m O-NO 1,00 h 646 W/m 11,8 km/h (2 Bft)
16.03.2017 13:00 15,3 C 57 % 1022,4 hPa 0,0 l/m O-NO 1,00 h 609 W/m 13,2 km/h (3 Bft)
16.03.2017 14:00 16,1 C 49 % 1021,6 hPa 0,0 l/m NO 1,00 h 523 W/m 10,8 km/h (2 Bft)
16.03.2017 15:00 16,6 C 45 % 1021,2 hPa 0,0 l/m O-NO 1,00 h 399 W/m 11,1 km/h (2 Bft)
16.03.2017 16:00 16,4 C 44 % 1020,7 hPa 0,0 l/m O-SO 1,00 h 232 W/m 11,8 km/h (2 Bft)
16.03.2017 17:00 15,4 C 44 % 1020,3 hPa 0,0 l/m O 0,08 h 64 W/m 9,0 km/h (2 Bft)
16.03.2017 18:00 12,3 C 53 % 1020,0 hPa 0,0 l/m N 0,00 h 11 W/m 0,0 km/h (0 Bft)
16.03.2017 19:00 8,9 C 65 % 1019,8 hPa 0,0 l/m N 0,00 h 0 W/m 0,0 km/h (0 Bft)
16.03.2017 20:00 7,3 C 70 % 1019,8 hPa 0,0 l/m N 0,00 h 0 W/m 0,0 km/h (0 Bft)
16.03.2017 21:00 6,1 C 75 % 1019,7 hPa 0,0 l/m N 0,00 h 0 W/m 0,0 km/h (0 Bft)
16.03.2017 22:00 4,9 C 80 % 1019,4 hPa 0,0 l/m N 0,00 h 0 W/m 0,0 km/h (0 Bft)
16.03.2017 23:00 3,8 C 84 % 1019,2 hPa 0,0 l/m N 0,00 h 0 W/m 0,0 km/h (0 Bft)
17.03.2017 00:00 2,9 C 88 % 1018,9 hPa 0,0 l/m N 0,00 h 0 W/m 0,0 km/h (0 Bft)
17.03.2017 01:00 2,0 C 90 % 1018,5 hPa 0,0 l/m N 0,00 h 0 W/m 0,0 km/h (0 Bft)
17.03.2017 02:00 1,4 C 92 % 1017,9 hPa 0,0 l/m N 0,00 h 0 W/m 0,0 km/h (0 Bft)
17.03.2017 03:00 1,0 C 92 % 1017,4 hPa 0,0 l/m N 0,00 h 0 W/m 0,0 km/h (0 Bft)
17.03.2017 04:00 0,8 C 92 % 1017,2 hPa 0,0 l/m N 0,00 h 0 W/m 0,1 km/h (0 Bft)
17.03.2017 05:00 0,8 C 93 % 1017,0 hPa 0,0 l/m N 0,00 h 0 W/m 0,0 km/h (0 Bft)
17.03.2017 06:00 1,2 C 94 % 1017,1 hPa 0,0 l/m N 0,08 h 15 W/m 0,1 km/h (0 Bft)
17.03.2017 07:00 2,4 C 95 % 1017,3 hPa 0,0 l/m O 0,83 h 106 W/m 6,9 km/h (2 Bft)
17.03.2017 08:00 6,6 C 89 % 1017,3 hPa 0,0 l/m S-SO 0,67 h 230 W/m 10,6 km/h (2 Bft)
17.03.2017 09:00 10,2 C 78 % 1016,9 hPa 0,0 l/m S-SW 1,00 h 434 W/m 18,4 km/h (3 Bft)
17.03.2017 10:00 12,8 C 70 % 1016,5 hPa 0,0 l/m S-SW 0,92 h 504 W/m 19,8 km/h (4 Bft)
17.03.2017 11:00 15,2 C 63 % 1015,8 hPa 0,0 l/m SW 1,00 h 619 W/m 28,8 km/h (5 Bft)
17.03.2017 12:00 16,4 C 59 % 1015,1 hPa 0,0 l/m SW 1,00 h 631 W/m 29,2 km/h (5 Bft)
17.03.2017 13:00 17,1 C 56 % 1013,8 hPa 0,0 l/m SW 0,75 h 555 W/m 31,7 km/h (5 Bft)
17.03.2017 14:00 18,4 C 50 % 1012,9 hPa 0,0 l/m W-SW 0,92 h 499 W/m 25,2 km/h (4 Bft)
17.03.2017 15:00 18,6 C 45 % 1012,2 hPa 0,0 l/m W 0,75 h 365 W/m 29,4 km/h (5 Bft)
17.03.2017 16:00 18,0 C 43 % 1011,8 hPa 0,0 l/m W 0,75 h 214 W/m 28,6 km/h (4 Bft)
17.03.2017 17:00 16,9 C 42 % 1012,1 hPa 0,0 l/m W 0,08 h 67 W/m 22,7 km/h (4 Bft)
17.03.2017 18:00 15,3 C 52 % 1012,7 hPa 0,0 l/m NW 0,00 h 12 W/m 17,8 km/h (3 Bft)
17.03.2017 19:00 12,8 C 71 % 1013,1 hPa 0,0 l/m W-NW 0,00 h 0 W/m 15,3 km/h (3 Bft)
17.03.2017 20:00 11,1 C 78 % 1013,3 hPa 0,0 l/m NW 0,00 h 0 W/m 12,8 km/h (3 Bft)
17.03.2017 21:00 10,2 C 81 % 1013,7 hPa 0,0 l/m W-NW 0,00 h 0 W/m 11,6 km/h (2 Bft)
17.03.2017 22:00 9,4 C 82 % 1013,8 hPa 0,0 l/m W-NW 0,00 h 0 W/m 10,6 km/h (2 Bft)
17.03.2017 23:00 8,8 C 82 % 1013,8 hPa 0,0 l/m W-NW 0,00 h 0 W/m 14,2 km/h (3 Bft)
18.03.2017 00:00 8,3 C 82 % 1012,8 hPa 0,0 l/m W-SW 0,00 h 0 W/m 13,4 km/h (3 Bft)
18.03.2017 01:00 7,9 C 83 % 1011,9 hPa 0,0 l/m W 0,00 h 0 W/m 13,0 km/h (3 Bft)
18.03.2017 02:00 8,5 C 82 % 1011,0 hPa 0,0 l/m W-SW 0,00 h 0 W/m 23,6 km/h (4 Bft)
18.03.2017 03:00 8,4 C 74 % 1010,5 hPa 0,0 l/m W-SW 0,00 h 0 W/m 26,9 km/h (4 Bft)
18.03.2017 04:00 8,2 C 71 % 1010,6 hPa 0,0 l/m W-SW 0,00 h 0 W/m 28,4 km/h (4 Bft)
18.03.2017 05:00 7,6 C 75 % 1010,7 hPa 0,2 l/m SW 0,00 h 0 W/m 27,3 km/h (4 Bft)
18.03.2017 06:00 6,3 C 85 % 1010,9 hPa 1,4 l/m SW 0,00 h 5 W/m 33,5 km/h (5 Bft)
18.03.2017 07:00 6,0 C 89 % 1010,4 hPa 0,4 l/m SW 0,00 h 18 W/m 38,2 km/h (5 Bft)
18.03.2017 08:00 6,3 C 90 % 1010,1 hPa 0,2 l/m W-SW 0,00 h 49 W/m 34,7 km/h (5 Bft)
18.03.2017 09:00 7,0 C 86 % 1009,9 hPa 0,0 l/m W-SW 0,00 h 72 W/m 36,9 km/h (5 Bft)
18.03.2017 10:00 7,4 C 84 % 1010,2 hPa 0,0 l/m W 0,00 h 101 W/m 38,5 km/h (5 Bft)
18.03.2017 11:00 7,3 C 84 % 1011,0 hPa 0,2 l/m W 0,00 h 123 W/m 33,5 km/h (5 Bft)
18.03.2017 12:00 7,2 C 87 % 1011,1 hPa 0,8 l/m W 0,00 h 106 W/m 28,0 km/h (4 Bft)
18.03.2017 13:00 7,6 C 89 % 1011,1 hPa 0,2 l/m W-SW 0,00 h 210 W/m 29,9 km/h (5 Bft)
18.03.2017 14:00 7,9 C 88 % 1010,8 hPa 0,0 l/m W-SW 0,00 h 133 W/m 27,6 km/h (4 Bft)
18.03.2017 15:00 8,2 C 87 % 1010,9 hPa 0,0 l/m W-SW 0,00 h 60 W/m 26,4 km/h (4 Bft)
18.03.2017 16:00 8,2 C 88 % 1011,1 hPa 0,0 l/m W-SW 0,00 h 51 W/m 28,2 km/h (4 Bft)
18.03.2017 17:00 8,3 C 87 % 1011,8 hPa 0,0 l/m SW 0,00 h 29 W/m 24,9 km/h (4 Bft)
18.03.2017 18:00 8,3 C 87 % 1012,1 hPa 0,0 l/m W 0,00 h 10 W/m 27,5 km/h (4 Bft)
18.03.2017 19:00 8,3 C 89 % 1012,2 hPa 0,0 l/m W-SW 0,00 h 0 W/m 28,3 km/h (4 Bft)
18.03.2017 20:00 8,3 C 89 % 1012,5 hPa 0,0 l/m W-SW 0,00 h 0 W/m 32,9 km/h (5 Bft)
18.03.2017 21:00 8,2 C 90 % 1012,7 hPa 0,0 l/m W 0,00 h 0 W/m 33,9 km/h (5 Bft)
18.03.2017 22:00 8,2 C 91 % 1013,0 hPa 0,0 l/m W-SW 0,00 h 0 W/m 30,4 km/h (5 Bft)
18.03.2017 23:00 8,2 C 91 % 1013,1 hPa 0,0 l/m W-SW 0,00 h 0 W/m 29,5 km/h (5 Bft)
19.03.2017 00:00 8,4 C 90 % 1013,1 hPa 0,0 l/m W-SW 0,00 h 0 W/m 29,4 km/h (5 Bft)
19.03.2017 01:00 8,5 C 89 % 1013,0 hPa 0,0 l/m W-SW 0,00 h 0 W/m 26,5 km/h (4 Bft)
19.03.2017 02:00 8,6 C 90 % 1013,1 hPa 0,0 l/m W-SW 0,00 h 0 W/m 28,2 km/h (4 Bft)
19.03.2017 03:00 8,6 C 90 % 1013,0 hPa 0,2 l/m W-SW 0,00 h 0 W/m 26,2 km/h (4 Bft)
19.03.2017 04:00 8,3 C 93 % 1013,3 hPa 0,4 l/m W-SW 0,00 h 0 W/m 23,4 km/h (4 Bft)
19.03.2017 05:00 8,3 C 94 % 1013,5 hPa 0,0 l/m W-SW 0,00 h 0 W/m 22,3 km/h (4 Bft)
19.03.2017 06:00 8,4 C 94 % 1013,8 hPa 0,0 l/m W-SW 0,00 h 7 W/m 19,2 km/h (3 Bft)
19.03.2017 07:00 8,7 C 93 % 1014,0 hPa 0,0 l/m W-SW 0,00 h 37 W/m 21,8 km/h (4 Bft)
19.03.2017 08:00 9,1 C 92 % 1014,2 hPa 0,0 l/m W-SW 0,00 h 77 W/m 24,2 km/h (4 Bft)
19.03.2017 09:00 9,8 C 90 % 1014,1 hPa 0,0 l/m W-SW 0,17 h 195 W/m 23,6 km/h (4 Bft)
19.03.2017 10:00 11,1 C 87 % 1013,8 hPa 0,0 l/m W-SW 0,67 h 378 W/m 23,9 km/h (4 Bft)
19.03.2017 11:00 12,4 C 83 % 1013,4 hPa 0,0 l/m W-SW 0,75 h 498 W/m 28,4 km/h (4 Bft)
19.03.2017 12:00 12,5 C 82 % 1012,8 hPa 0,0 l/m W-SW 0,33 h 316 W/m 29,4 km/h (5 Bft)
19.03.2017 13:00 12,2 C 83 % 1012,4 hPa 0,0 l/m W-SW 0,00 h 197 W/m 28,7 km/h (4 Bft)
19.03.2017 14:00 12,6 C 82 % 1012,1 hPa 0,0 l/m W 0,17 h 296 W/m 30,7 km/h (5 Bft)
19.03.2017 15:00 12,9 C 81 % 1011,7 hPa 0,0 l/m W-SW 0,25 h 240 W/m 27,5 km/h (4 Bft)
19.03.2017 16:00 13,0 C 80 % 1011,4 hPa 0,0 l/m W-SW 0,33 h 164 W/m 29,4 km/h (5 Bft)
19.03.2017 17:00 12,4 C 81 % 1011,2 hPa 0,0 l/m W-SW 0,00 h 53 W/m 18,9 km/h (3 Bft)
19.03.2017 18:00 11,9 C 81 % 1010,9 hPa 0,0 l/m W-SW 0,00 h 8 W/m 21,0 km/h (4 Bft)
19.03.2017 19:00 11,9 C 80 % 1011,1 hPa 0,0 l/m W 0,00 h 0 W/m 23,3 km/h (4 Bft)
19.03.2017 20:00 11,8 C 82 % 1011,2 hPa 0,0 l/m W-SW 0,00 h 0 W/m 23,1 km/h (4 Bft)
19.03.2017 21:00 11,3 C 84 % 1011,6 hPa 0,0 l/m W 0,00 h 0 W/m 18,8 km/h (3 Bft)
19.03.2017 22:00 10,9 C 84 % 1011,9 hPa 0,0 l/m W-NW 0,00 h 0 W/m 18,4 km/h (3 Bft)
19.03.2017 23:00 10,3 C 83 % 1012,0 hPa 0,0 l/m SW 0,00 h 0 W/m 8,8 km/h (2 Bft)
Min-Datum _ 13.03.17 13.03.17 18.03.17 - - - - 13.03.17
_ Min-Zeit 06:55 16:40 09:15 - - - - 00:30
Minimum _ -1,8 C 38 % 1009,7 hPa - - - - 0,0 km/h (0 Bft)
Max-Datum _ 17.03.17 16.03.17 14.03.17 18.03.17 - 13.03.17 17.03.17 18.03.17
_ Max-Zeit 15:00 07:40 10:10 06:05 - 06:50 12:40 10:25
Maximum _ 18,9 C 97 % 1031,9 hPa 1,4 l/m - 0,08 h 798 W/m 49,9 km/h
W (6 Bft)
Durchschnitt _ 7,9 C 77 % 1020,7 hPa #4,0 l/m W-SW #46:40 h 264 W/m 11,4 km/h (2 Bft)